sensor_id;sensor_type;location;lat;lon;timestamp;pressure;altitude;pressure_sealevel;temperature;humidity
57068;BME280;43391;47.448;18.904;2023-05-19T00:00:54;100340.78;;;12.17;100.00
57068;BME280;43391;47.448;18.904;2023-05-19T00:03:20;100342.50;;;12.18;100.00
57068;BME280;43391;47.448;18.904;2023-05-19T00:05:47;100333.97;;;12.14;100.00
57068;BME280;43391;47.448;18.904;2023-05-19T00:08:15;100335.84;;;12.11;100.00
57068;BME280;43391;47.448;18.904;2023-05-19T00:10:41;100336.06;;;12.06;100.00
57068;BME280;43391;47.448;18.904;2023-05-19T00:13:07;100327.66;;;11.99;100.00
57068;BME280;43391;47.448;18.904;2023-05-19T00:15:32;100333.06;;;11.94;100.00
57068;BME280;43391;47.448;18.904;2023-05-19T00:17:57;100328.06;;;11.90;100.00
57068;BME280;43391;47.448;18.904;2023-05-19T00:20:23;100333.41;;;11.87;100.00
57068;BME280;43391;47.448;18.904;2023-05-19T00:22:48;100326.59;;;11.84;100.00
57068;BME280;43391;47.448;18.904;2023-05-19T00:25:15;100331.16;;;11.79;100.00
57068;BME280;43391;47.448;18.904;2023-05-19T00:27:40;100328.63;;;11.77;100.00
57068;BME280;43391;47.448;18.904;2023-05-19T00:30:06;100327.84;;;11.75;100.00
57068;BME280;43391;47.448;18.904;2023-05-19T00:32:32;100324.66;;;11.68;100.00
57068;BME280;43391;47.448;18.904;2023-05-19T00:34:58;100327.31;;;11.67;100.00
57068;BME280;43391;47.448;18.904;2023-05-19T00:37:23;100328.31;;;11.64;100.00
57068;BME280;43391;47.448;18.904;2023-05-19T00:39:49;100325.81;;;11.61;100.00
57068;BME280;43391;47.448;18.904;2023-05-19T00:42:15;100329.50;;;11.57;100.00
57068;BME280;43391;47.448;18.904;2023-05-19T00:44:40;100326.25;;;11.52;100.00
57068;BME280;43391;47.448;18.904;2023-05-19T00:47:07;100317.78;;;11.47;100.00
57068;BME280;43391;47.448;18.904;2023-05-19T00:49:32;100325.66;;;11.45;100.00
57068;BME280;43391;47.448;18.904;2023-05-19T00:52:00;100323.00;;;11.47;100.00
57068;BME280;43391;47.448;18.904;2023-05-19T00:54:26;100323.97;;;11.44;100.00
57068;BME280;43391;47.448;18.904;2023-05-19T00:56:53;100322.25;;;11.43;100.00
57068;BME280;43391;47.448;18.904;2023-05-19T00:59:19;100327.53;;;11.41;100.00
57068;BME280;43391;47.448;18.904;2023-05-19T01:01:46;100323.22;;;11.40;100.00
57068;BME280;43391;47.448;18.904;2023-05-19T01:04:17;100319.81;;;11.40;100.00
57068;BME280;43391;47.448;18.904;2023-05-19T01:06:46;100325.13;;;11.37;100.00
57068;BME280;43391;47.448;18.904;2023-05-19T01:09:11;100320.91;;;11.34;100.00
57068;BME280;43391;47.448;18.904;2023-05-19T01:11:37;100321.69;;;11.36;100.00
57068;BME280;43391;47.448;18.904;2023-05-19T01:14:02;100321.09;;;11.29;100.00
57068;BME280;43391;47.448;18.904;2023-05-19T01:16:41;100317.53;;;11.32;100.00
57068;BME280;43391;47.448;18.904;2023-05-19T01:27:27;100322.44;;;11.18;100.00
57068;BME280;43391;47.448;18.904;2023-05-19T01:30:21;100329.28;;;11.20;100.00
57068;BME280;43391;47.448;18.904;2023-05-19T01:32:50;100331.22;;;11.15;100.00
57068;BME280;43391;47.448;18.904;2023-05-19T01:35:18;100331.53;;;11.07;100.00
57068;BME280;43391;47.448;18.904;2023-05-19T01:37:44;100335.03;;;11.06;100.00
57068;BME280;43391;47.448;18.904;2023-05-19T01:40:11;100330.56;;;11.10;100.00
57068;BME280;43391;47.448;18.904;2023-05-19T01:42:38;100326.28;;;11.09;100.00
57068;BME280;43391;47.448;18.904;2023-05-19T01:45:05;100315.84;;;11.10;100.00
57068;BME280;43391;47.448;18.904;2023-05-19T01:47:35;100322.91;;;11.07;100.00
57068;BME280;43391;47.448;18.904;2023-05-19T01:50:05;100314.50;;;11.00;100.00
57068;BME280;43391;47.448;18.904;2023-05-19T01:52:31;100323.13;;;11.00;100.00
57068;BME280;43391;47.448;18.904;2023-05-19T01:54:56;100321.41;;;11.01;100.00
57068;BME280;43391;47.448;18.904;2023-05-19T02:00:50;100320.47;;;11.02;100.00
57068;BME280;43391;47.448;18.904;2023-05-19T02:03:32;100324.25;;;10.95;100.00
57068;BME280;43391;47.448;18.904;2023-05-19T02:08:46;100322.41;;;10.97;100.00
57068;BME280;43391;47.448;18.904;2023-05-19T02:11:37;100324.09;;;10.98;100.00
57068;BME280;43391;47.448;18.904;2023-05-19T02:14:17;100319.16;;;10.92;100.00
57068;BME280;43391;47.448;18.904;2023-05-19T02:16:46;100319.22;;;10.90;100.00
57068;BME280;43391;47.448;18.904;2023-05-19T02:19:28;100317.47;;;10.90;100.00
57068;BME280;43391;47.448;18.904;2023-05-19T02:21:53;100321.97;;;10.87;100.00
57068;BME280;43391;47.448;18.904;2023-05-19T02:24:19;100318.56;;;10.85;100.00
57068;BME280;43391;47.448;18.904;2023-05-19T02:26:46;100326.00;;;10.72;100.00
57068;BME280;43391;47.448;18.904;2023-05-19T02:29:12;100322.72;;;10.67;100.00
57068;BME280;43391;47.448;18.904;2023-05-19T02:31:37;100318.53;;;10.64;100.00
57068;BME280;43391;47.448;18.904;2023-05-19T02:34:03;100320.13;;;10.67;100.00
57068;BME280;43391;47.448;18.904;2023-05-19T02:38:55;100313.91;;;10.71;100.00
57068;BME280;43391;47.448;18.904;2023-05-19T02:41:21;100313.34;;;10.64;100.00
57068;BME280;43391;47.448;18.904;2023-05-19T02:43:46;100320.28;;;10.63;100.00
57068;BME280;43391;47.448;18.904;2023-05-19T02:46:11;100309.13;;;10.61;100.00
57068;BME280;43391;47.448;18.904;2023-05-19T02:48:37;100315.19;;;10.60;100.00
57068;BME280;43391;47.448;18.904;2023-05-19T02:51:02;100315.19;;;10.60;100.00
57068;BME280;43391;47.448;18.904;2023-05-19T02:53:27;100313.50;;;10.59;100.00
57068;BME280;43391;47.448;18.904;2023-05-19T02:55:53;100316.97;;;10.60;100.00
57068;BME280;43391;47.448;18.904;2023-05-19T02:58:18;100322.16;;;10.60;100.00
57068;BME280;43391;47.448;18.904;2023-05-19T03:00:44;100329.88;;;10.61;100.00
57068;BME280;43391;47.448;18.904;2023-05-19T03:03:09;100322.97;;;10.60;100.00
57068;BME280;43391;47.448;18.904;2023-05-19T03:05:35;100327.34;;;10.60;100.00
57068;BME280;43391;47.448;18.904;2023-05-19T03:08:01;100331.56;;;10.62;100.00
57068;BME280;43391;47.448;18.904;2023-05-19T03:10:26;100325.66;;;10.59;100.00
57068;BME280;43391;47.448;18.904;2023-05-19T03:12:52;100332.69;;;10.55;100.00
57068;BME280;43391;47.448;18.904;2023-05-19T03:15:17;100334.47;;;10.55;100.00
57068;BME280;43391;47.448;18.904;2023-05-19T03:17:43;100330.41;;;10.47;100.00
57068;BME280;43391;47.448;18.904;2023-05-19T03:20:09;100335.53;;;10.49;100.00
57068;BME280;43391;47.448;18.904;2023-05-19T03:22:35;100340.78;;;10.47;100.00
57068;BME280;43391;47.448;18.904;2023-05-19T03:25:00;100330.59;;;10.41;100.00
57068;BME280;43391;47.448;18.904;2023-05-19T03:27:25;100333.47;;;10.33;100.00
57068;BME280;43391;47.448;18.904;2023-05-19T03:29:51;100331.75;;;10.34;100.00
57068;BME280;43391;47.448;18.904;2023-05-19T03:32:17;100323.97;;;10.34;100.00
57068;BME280;43391;47.448;18.904;2023-05-19T03:34:43;100330.91;;;10.33;100.00
57068;BME280;43391;47.448;18.904;2023-05-19T03:37:08;100337.91;;;10.31;100.00
57068;BME280;43391;47.448;18.904;2023-05-19T03:39:35;100331.22;;;10.24;100.00
57068;BME280;43391;47.448;18.904;2023-05-19T03:42:00;100331.69;;;10.35;100.00
57068;BME280;43391;47.448;18.904;2023-05-19T03:44:26;100329.88;;;10.37;100.00
57068;BME280;43391;47.448;18.904;2023-05-19T03:46:51;100323.00;;;10.36;100.00
57068;BME280;43391;47.448;18.904;2023-05-19T03:49:16;100325.66;;;10.35;100.00
57068;BME280;43391;47.448;18.904;2023-05-19T03:51:41;100329.09;;;10.35;100.00
57068;BME280;43391;47.448;18.904;2023-05-19T03:54:08;100326.56;;;10.34;100.00
57068;BME280;43391;47.448;18.904;2023-05-19T03:56:37;100324.06;;;10.31;100.00
57068;BME280;43391;47.448;18.904;2023-05-19T03:59:03;100333.66;;;10.29;100.00
57068;BME280;43391;47.448;18.904;2023-05-19T04:01:30;100328.53;;;10.27;100.00
57068;BME280;43391;47.448;18.904;2023-05-19T04:03:55;100333.78;;;10.26;100.00
57068;BME280;43391;47.448;18.904;2023-05-19T04:06:20;100339.88;;;10.24;100.00
57068;BME280;43391;47.448;18.904;2023-05-19T04:08:46;100339.91;;;10.23;100.00
57068;BME280;43391;47.448;18.904;2023-05-19T04:11:11;100338.00;;;10.28;100.00
57068;BME280;43391;47.448;18.904;2023-05-19T04:13:36;100342.09;;;10.35;100.00
57068;BME280;43391;47.448;18.904;2023-05-19T04:16:02;100340.16;;;10.41;100.00
57068;BME280;43391;47.448;18.904;2023-05-19T04:18:28;100348.56;;;10.47;100.00
57068;BME280;43391;47.448;18.904;2023-05-19T04:20:53;100350.34;;;10.47;100.00
57068;BME280;43391;47.448;18.904;2023-05-19T04:23:18;100348.56;;;10.47;100.00
57068;BME280;43391;47.448;18.904;2023-05-19T04:25:44;100355.28;;;10.53;100.00
57068;BME280;43391;47.448;18.904;2023-05-19T04:28:09;100349.97;;;10.56;100.00
57068;BME280;43391;47.448;18.904;2023-05-19T04:30:34;100347.31;;;10.58;100.00
57068;BME280;43391;47.448;18.904;2023-05-19T04:33:01;100348.88;;;10.62;100.00
57068;BME280;43391;47.448;18.904;2023-05-19T04:35:27;100354.75;;;10.67;100.00
57068;BME280;43391;47.448;18.904;2023-05-19T04:37:53;100355.31;;;10.75;100.00
57068;BME280;43391;47.448;18.904;2023-05-19T04:40:18;100365.41;;;10.83;100.00
57068;BME280;43391;47.448;18.904;2023-05-19T04:42:46;100371.06;;;10.93;100.00
57068;BME280;43391;47.448;18.904;2023-05-19T04:45:14;100368.16;;;11.01;100.00
57068;BME280;43391;47.448;18.904;2023-05-19T04:47:39;100373.16;;;11.06;100.00
57068;BME280;43391;47.448;18.904;2023-05-19T04:50:06;100371.09;;;11.14;100.00
57068;BME280;43391;47.448;18.904;2023-05-19T04:52:32;100379.31;;;11.25;100.00
57068;BME280;43391;47.448;18.904;2023-05-19T04:54:57;100377.97;;;11.37;100.00
57068;BME280;43391;47.448;18.904;2023-05-19T04:57:23;100378.09;;;11.55;100.00
57068;BME280;43391;47.448;18.904;2023-05-19T04:59:48;100373.47;;;11.62;100.00
57068;BME280;43391;47.448;18.904;2023-05-19T05:02:14;100373.09;;;11.71;100.00
57068;BME280;43391;47.448;18.904;2023-05-19T05:04:40;100375.97;;;11.86;100.00
57068;BME280;43391;47.448;18.904;2023-05-19T05:07:08;100367.59;;;11.98;100.00
57068;BME280;43391;47.448;18.904;2023-05-19T05:09:34;100376.72;;;12.08;100.00
57068;BME280;43391;47.448;18.904;2023-05-19T05:12:00;100376.22;;;12.19;100.00
57068;BME280;43391;47.448;18.904;2023-05-19T05:14:26;100374.84;;;12.31;100.00
57068;BME280;43391;47.448;18.904;2023-05-19T05:16:51;100388.31;;;12.41;100.00
57068;BME280;43391;47.448;18.904;2023-05-19T05:19:17;100385.41;;;12.47;100.00
57068;BME280;43391;47.448;18.904;2023-05-19T05:21:43;100392.88;;;12.55;100.00
57068;BME280;43391;47.448;18.904;2023-05-19T05:24:09;100394.50;;;12.58;100.00
57068;BME280;43391;47.448;18.904;2023-05-19T05:26:35;100392.50;;;12.63;100.00
57068;BME280;43391;47.448;18.904;2023-05-19T05:29:01;100395.41;;;12.76;100.00
57068;BME280;43391;47.448;18.904;2023-05-19T05:31:27;100387.41;;;12.79;100.00
57068;BME280;43391;47.448;18.904;2023-05-19T05:33:52;100399.19;;;12.88;100.00
57068;BME280;43391;47.448;18.904;2023-05-19T05:36:18;100394.09;;;12.85;100.00
57068;BME280;43391;47.448;18.904;2023-05-19T05:38:43;100401.84;;;12.86;100.00
57068;BME280;43391;47.448;18.904;2023-05-19T05:41:09;100398.03;;;12.94;100.00
57068;BME280;43391;47.448;18.904;2023-05-19T05:43:34;100400.88;;;12.89;100.00
57068;BME280;43391;47.448;18.904;2023-05-19T05:45:59;100396.41;;;12.91;100.00
57068;BME280;43391;47.448;18.904;2023-05-19T05:48:25;100396.59;;;12.88;100.00
57068;BME280;43391;47.448;18.904;2023-05-19T05:50:51;100404.31;;;12.89;100.00
57068;BME280;43391;47.448;18.904;2023-05-19T05:53:18;100400.72;;;12.92;100.00
57068;BME280;43391;47.448;18.904;2023-05-19T05:55:45;100401.25;;;12.99;100.00
57068;BME280;43391;47.448;18.904;2023-05-19T05:58:10;100401.59;;;13.10;100.00
57068;BME280;43391;47.448;18.904;2023-05-19T06:00:36;100398.84;;;13.13;100.00
57068;BME280;43391;47.448;18.904;2023-05-19T06:03:02;100410.03;;;13.15;100.00
57068;BME280;43391;47.448;18.904;2023-05-19T06:05:29;100407.06;;;13.23;100.00
57068;BME280;43391;47.448;18.904;2023-05-19T06:07:54;100411.28;;;13.26;100.00
57068;BME280;43391;47.448;18.904;2023-05-19T06:10:20;100411.19;;;13.27;100.00
57068;BME280;43391;47.448;18.904;2023-05-19T06:12:46;100419.56;;;13.34;100.00
57068;BME280;43391;47.448;18.904;2023-05-19T06:15:12;100416.03;;;13.35;100.00
57068;BME280;43391;47.448;18.904;2023-05-19T06:17:37;100419.28;;;13.40;100.00
57068;BME280;43391;47.448;18.904;2023-05-19T06:20:03;100417.69;;;13.55;100.00
57068;BME280;43391;47.448;18.904;2023-05-19T06:22:32;100414.31;;;13.71;100.00
57068;BME280;43391;47.448;18.904;2023-05-19T06:24:58;100416.81;;;13.90;100.00
57068;BME280;43391;47.448;18.904;2023-05-19T06:27:23;100415.94;;;14.07;100.00
57068;BME280;43391;47.448;18.904;2023-05-19T06:29:49;100418.53;;;14.25;100.00
57068;BME280;43391;47.448;18.904;2023-05-19T06:32:14;100426.72;;;14.35;100.00
57068;BME280;43391;47.448;18.904;2023-05-19T06:34:40;100424.09;;;14.51;100.00
57068;BME280;43391;47.448;18.904;2023-05-19T06:37:05;100421.94;;;14.59;100.00
57068;BME280;43391;47.448;18.904;2023-05-19T06:39:31;100417.44;;;14.79;100.00
57068;BME280;43391;47.448;18.904;2023-05-19T06:41:56;100422.78;;;15.08;100.00
57068;BME280;43391;47.448;18.904;2023-05-19T06:44:21;100422.91;;;15.07;100.00
57068;BME280;43391;47.448;18.904;2023-05-19T06:46:47;100432.06;;;15.14;100.00
57068;BME280;43391;47.448;18.904;2023-05-19T06:49:12;100440.41;;;15.21;100.00
57068;BME280;43391;47.448;18.904;2023-05-19T06:51:37;100450.25;;;15.32;100.00
57068;BME280;43391;47.448;18.904;2023-05-19T06:54:03;100441.56;;;15.31;100.00
57068;BME280;43391;47.448;18.904;2023-05-19T06:56:28;100452.50;;;15.38;100.00
57068;BME280;43391;47.448;18.904;2023-05-19T06:58:54;100452.25;;;15.43;100.00
57068;BME280;43391;47.448;18.904;2023-05-19T07:01:19;100445.81;;;15.48;100.00
57068;BME280;43391;47.448;18.904;2023-05-19T07:03:45;100451.53;;;15.55;100.00
57068;BME280;43391;47.448;18.904;2023-05-19T07:06:11;100456.03;;;15.53;100.00
57068;BME280;43391;47.448;18.904;2023-05-19T07:08:36;100448.31;;;15.66;100.00
57068;BME280;43391;47.448;18.904;2023-05-19T07:11:02;100446.34;;;15.70;100.00
57068;BME280;43391;47.448;18.904;2023-05-19T07:13:27;100450.78;;;15.84;100.00
57068;BME280;43391;47.448;18.904;2023-05-19T07:15:52;100456.72;;;16.02;100.00
57068;BME280;43391;47.448;18.904;2023-05-19T07:18:21;100448.97;;;16.15;100.00
57068;BME280;43391;47.448;18.904;2023-05-19T07:20:46;100446.28;;;16.31;100.00
57068;BME280;43391;47.448;18.904;2023-05-19T07:23:12;100446.47;;;16.42;100.00
57068;BME280;43391;47.448;18.904;2023-05-19T07:25:37;100436.78;;;16.43;98.55
57068;BME280;43391;47.448;18.904;2023-05-19T07:28:03;100443.19;;;16.39;98.47
57068;BME280;43391;47.448;18.904;2023-05-19T07:30:28;100442.91;;;16.43;100.00
57068;BME280;43391;47.448;18.904;2023-05-19T07:32:54;100432.59;;;16.55;100.00
57068;BME280;43391;47.448;18.904;2023-05-19T07:35:20;100443.16;;;16.53;99.42
57068;BME280;43391;47.448;18.904;2023-05-19T07:37:48;100441.56;;;16.51;99.37
57068;BME280;43391;47.448;18.904;2023-05-19T07:40:14;100442.31;;;16.53;100.00
57068;BME280;43391;47.448;18.904;2023-05-19T07:42:40;100432.78;;;16.52;99.53
57068;BME280;43391;47.448;18.904;2023-05-19T07:45:06;100439.72;;;16.53;100.00
57068;BME280;43391;47.448;18.904;2023-05-19T07:47:32;100433.78;;;16.64;98.02
57068;BME280;43391;47.448;18.904;2023-05-19T07:49:57;100433.38;;;16.84;99.79
57068;BME280;43391;47.448;18.904;2023-05-19T07:52:22;100443.63;;;17.02;98.92
57068;BME280;43391;47.448;18.904;2023-05-19T07:54:48;100445.56;;;17.13;94.89
57068;BME280;43391;47.448;18.904;2023-05-19T07:57:13;100437.94;;;17.10;96.02
57068;BME280;43391;47.448;18.904;2023-05-19T07:59:39;100438.56;;;16.99;95.86
57068;BME280;43391;47.448;18.904;2023-05-19T08:02:04;100433.13;;;17.02;96.91
57068;BME280;43391;47.448;18.904;2023-05-19T08:04:30;100437.94;;;16.95;95.75
57068;BME280;43391;47.448;18.904;2023-05-19T08:06:55;100427.91;;;17.02;97.44
57068;BME280;43391;47.448;18.904;2023-05-19T08:09:21;100424.50;;;17.00;94.44
57068;BME280;43391;47.448;18.904;2023-05-19T08:11:46;100426.00;;;17.19;98.66
57068;BME280;43391;47.448;18.904;2023-05-19T08:14:12;100426.66;;;17.35;92.51
57068;BME280;43391;47.448;18.904;2023-05-19T08:16:37;100423.59;;;17.29;94.66
57068;BME280;43391;47.448;18.904;2023-05-19T08:19:03;100421.19;;;17.25;91.12
57068;BME280;43391;47.448;18.904;2023-05-19T08:21:30;100423.59;;;17.29;91.77
57068;BME280;43391;47.448;18.904;2023-05-19T08:23:59;100425.75;;;17.49;95.41
57068;BME280;43391;47.448;18.904;2023-05-19T08:26:26;100423.56;;;17.56;92.42
57068;BME280;43391;47.448;18.904;2023-05-19T08:28:53;100427.13;;;17.55;93.39
57068;BME280;43391;47.448;18.904;2023-05-19T08:31:23;100430.91;;;17.64;91.27
57068;BME280;43391;47.448;18.904;2023-05-19T08:33:49;100419.16;;;17.96;90.25
57068;BME280;43391;47.448;18.904;2023-05-19T08:36:15;100423.81;;;18.18;87.89
57068;BME280;43391;47.448;18.904;2023-05-19T08:38:41;100414.66;;;18.24;89.37
57068;BME280;43391;47.448;18.904;2023-05-19T08:41:06;100413.66;;;18.51;89.33
57068;BME280;43391;47.448;18.904;2023-05-19T08:43:32;100419.50;;;18.67;90.78
57068;BME280;43391;47.448;18.904;2023-05-19T08:45:58;100415.03;;;18.81;88.69
57068;BME280;43391;47.448;18.904;2023-05-19T08:48:24;100420.88;;;18.97;88.08
57068;BME280;43391;47.448;18.904;2023-05-19T08:53:26;100426.56;;;18.91;87.95
57068;BME280;43391;47.448;18.904;2023-05-19T08:56:12;100424.22;;;18.99;88.95
57068;BME280;43391;47.448;18.904;2023-05-19T08:58:40;100423.97;;;19.16;87.65
57068;BME280;43391;47.448;18.904;2023-05-19T09:01:08;100414.56;;;19.36;88.34
57068;BME280;43391;47.448;18.904;2023-05-19T09:03:34;100414.13;;;19.42;85.56
57068;BME280;43391;47.448;18.904;2023-05-19T09:06:06;100408.19;;;19.74;86.10
57068;BME280;43391;47.448;18.904;2023-05-19T09:08:36;100419.97;;;19.93;84.12
57068;BME280;43391;47.448;18.904;2023-05-19T09:11:02;100416.84;;;19.88;82.54
57068;BME280;43391;47.448;18.904;2023-05-19T09:13:27;100417.91;;;19.62;81.19
57068;BME280;43391;47.448;18.904;2023-05-19T09:15:55;100413.31;;;19.17;81.01
57068;BME280;43391;47.448;18.904;2023-05-19T09:18:23;100407.22;;;18.92;81.31
57068;BME280;43391;47.448;18.904;2023-05-19T09:20:48;100406.25;;;18.93;82.68
57068;BME280;43391;47.448;18.904;2023-05-19T09:23:16;100412.88;;;18.99;80.78
57068;BME280;43391;47.448;18.904;2023-05-19T09:25:48;100406.91;;;19.33;83.30
57068;BME280;43391;47.448;18.904;2023-05-19T09:28:14;100406.78;;;19.70;84.11
57068;BME280;43391;47.448;18.904;2023-05-19T09:30:46;100402.22;;;19.84;80.74
57068;BME280;43391;47.448;18.904;2023-05-19T09:33:16;100411.22;;;19.81;81.86
57068;BME280;43391;47.448;18.904;2023-05-19T09:35:46;100407.84;;;19.68;82.10
57068;BME280;43391;47.448;18.904;2023-05-19T09:38:16;100401.22;;;19.15;82.41
57068;BME280;43391;47.448;18.904;2023-05-19T09:40:42;100399.53;;;18.89;82.33
57068;BME280;43391;47.448;18.904;2023-05-19T09:43:08;100400.31;;;18.78;83.83
57068;BME280;43391;47.448;18.904;2023-05-19T09:45:34;100400.47;;;18.64;85.55
57068;BME280;43391;47.448;18.904;2023-05-19T09:48:02;100392.69;;;18.62;84.92
57068;BME280;43391;47.448;18.904;2023-05-19T09:50:28;100395.97;;;19.02;86.61
57068;BME280;43391;47.448;18.904;2023-05-19T09:52:55;100389.59;;;19.42;82.95
57068;BME280;43391;47.448;18.904;2023-05-19T09:55:24;100386.19;;;19.87;85.36
57068;BME280;43391;47.448;18.904;2023-05-19T09:57:54;100377.25;;;20.12;83.85
57068;BME280;43391;47.448;18.904;2023-05-19T10:00:20;100375.66;;;20.33;79.93
57068;BME280;43391;47.448;18.904;2023-05-19T10:02:47;100371.22;;;20.33;82.96
57068;BME280;43391;47.448;18.904;2023-05-19T10:05:18;100372.75;;;20.47;80.12
57068;BME280;43391;47.448;18.904;2023-05-19T10:07:49;100375.88;;;20.52;80.75
57068;BME280;43391;47.448;18.904;2023-05-19T10:10:16;100373.19;;;20.64;80.62
57068;BME280;43391;47.448;18.904;2023-05-19T10:12:41;100371.59;;;20.73;80.16
57068;BME280;43391;47.448;18.904;2023-05-19T10:15:12;100374.53;;;20.58;80.68
57068;BME280;43391;47.448;18.904;2023-05-19T10:17:39;100372.75;;;20.47;77.03
57068;BME280;43391;47.448;18.904;2023-05-19T10:20:15;100368.38;;;20.13;78.79
57068;BME280;43391;47.448;18.904;2023-05-19T10:22:42;100362.72;;;19.95;82.30
57068;BME280;43391;47.448;18.904;2023-05-19T10:25:08;100364.38;;;19.73;82.56
57068;BME280;43391;47.448;18.904;2023-05-19T10:27:36;100358.13;;;19.40;83.90
57068;BME280;43391;47.448;18.904;2023-05-19T10:30:12;100354.25;;;19.33;88.23
57068;BME280;43391;47.448;18.904;2023-05-19T10:32:41;100353.47;;;19.55;82.98
57068;BME280;43391;47.448;18.904;2023-05-19T10:35:19;100350.97;;;20.22;79.06
57068;BME280;43391;47.448;18.904;2023-05-19T10:40:27;100357.44;;;21.18;72.31
57068;BME280;43391;47.448;18.904;2023-05-19T10:45:33;100351.16;;;21.40;73.44
57068;BME280;43391;47.448;18.904;2023-05-19T10:48:00;100349.53;;;21.70;73.41
57068;BME280;43391;47.448;18.904;2023-05-19T10:50:26;100350.22;;;22.03;74.54
57068;BME280;43391;47.448;18.904;2023-05-19T10:52:52;100341.25;;;22.26;72.94
57068;BME280;43391;47.448;18.904;2023-05-19T10:58:11;100341.88;;;22.59;71.57
57068;BME280;43391;47.448;18.904;2023-05-19T11:00:38;100340.66;;;22.53;72.13
57068;BME280;43391;47.448;18.904;2023-05-19T11:05:38;100333.47;;;22.24;71.02
57068;BME280;43391;47.448;18.904;2023-05-19T11:08:05;100330.25;;;22.30;73.02
57068;BME280;43391;47.448;18.904;2023-05-19T11:10:32;100328.75;;;22.38;69.57
57068;BME280;43391;47.448;18.904;2023-05-19T11:12:58;100333.56;;;22.64;70.77
57068;BME280;43391;47.448;18.904;2023-05-19T11:15:27;100336.31;;;22.52;70.57
57068;BME280;43391;47.448;18.904;2023-05-19T11:17:53;100321.09;;;22.35;69.45
57068;BME280;43391;47.448;18.904;2023-05-19T11:20:28;100322.50;;;22.39;70.75
57068;BME280;43391;47.448;18.904;2023-05-19T11:23:07;100331.19;;;22.71;70.99
57068;BME280;43391;47.448;18.904;2023-05-19T11:28:11;100325.75;;;22.82;64.91
57068;BME280;43391;47.448;18.904;2023-05-19T11:30:40;100327.38;;;22.43;61.94
57068;BME280;43391;47.448;18.904;2023-05-19T11:33:06;100326.31;;;22.05;64.56
57068;BME280;43391;47.448;18.904;2023-05-19T11:35:32;100314.25;;;22.22;65.34
57068;BME280;43391;47.448;18.904;2023-05-19T11:37:57;100323.66;;;22.56;63.14
57068;BME280;43391;47.448;18.904;2023-05-19T11:40:24;100325.88;;;22.90;66.68
57068;BME280;43391;47.448;18.904;2023-05-19T11:42:49;100325.84;;;23.20;66.38
57068;BME280;43391;47.448;18.904;2023-05-19T11:45:15;100328.75;;;23.27;59.78
57068;BME280;43391;47.448;18.904;2023-05-19T11:47:40;100326.53;;;23.32;61.62
57068;BME280;43391;47.448;18.904;2023-05-19T11:50:06;100330.41;;;23.47;64.15
57068;BME280;43391;47.448;18.904;2023-05-19T11:52:32;100334.81;;;23.67;58.53
57068;BME280;43391;47.448;18.904;2023-05-19T11:55:00;100328.09;;;23.72;58.45
57068;BME280;43391;47.448;18.904;2023-05-19T11:57:26;100333.34;;;23.82;56.92
57068;BME280;43391;47.448;18.904;2023-05-19T11:59:51;100330.81;;;23.91;55.72
57068;BME280;43391;47.448;18.904;2023-05-19T12:04:45;100321.69;;;23.65;55.42
57068;BME280;43391;47.448;18.904;2023-05-19T12:07:11;100323.72;;;23.53;55.44
57068;BME280;43391;47.448;18.904;2023-05-19T12:09:38;100318.63;;;23.60;57.96
57068;BME280;43391;47.448;18.904;2023-05-19T12:12:03;100311.25;;;23.64;59.12
57068;BME280;43391;47.448;18.904;2023-05-19T12:14:29;100310.47;;;23.53;61.29
57068;BME280;43391;47.448;18.904;2023-05-19T12:16:58;100306.78;;;23.64;63.45
57068;BME280;43391;47.448;18.904;2023-05-19T12:19:33;100306.59;;;23.38;62.82
57068;BME280;43391;47.448;18.904;2023-05-19T12:21:59;100309.41;;;23.36;61.61
57068;BME280;43391;47.448;18.904;2023-05-19T12:24:24;100306.03;;;23.44;56.74
57068;BME280;43391;47.448;18.904;2023-05-19T12:26:50;100296.78;;;23.58;58.52
57068;BME280;43391;47.448;18.904;2023-05-19T12:29:15;100297.38;;;23.80;55.30
57068;BME280;43391;47.448;18.904;2023-05-19T12:31:41;100289.78;;;23.95;57.49
57068;BME280;43391;47.448;18.904;2023-05-19T12:34:11;100282.69;;;24.13;55.89
57068;BME280;43391;47.448;18.904;2023-05-19T12:36:37;100282.03;;;24.30;56.38
57068;BME280;43391;47.448;18.904;2023-05-19T12:39:04;100276.88;;;24.28;53.25
57068;BME280;43391;47.448;18.904;2023-05-19T12:41:30;100277.66;;;24.38;53.71
57068;BME280;43391;47.448;18.904;2023-05-19T12:43:55;100270.28;;;24.50;52.76
57068;BME280;43391;47.448;18.904;2023-05-19T12:46:21;100271.06;;;24.42;52.95
57068;BME280;43391;47.448;18.904;2023-05-19T12:48:46;100272.09;;;24.50;54.50
57068;BME280;43391;47.448;18.904;2023-05-19T12:51:16;100264.41;;;24.65;54.29
57068;BME280;43391;47.448;18.904;2023-05-19T12:53:42;100262.34;;;24.77;53.94
57068;BME280;43391;47.448;18.904;2023-05-19T12:56:12;100258.72;;;24.78;50.82
57068;BME280;43391;47.448;18.904;2023-05-19T12:58:41;100262.22;;;24.78;54.11
57068;BME280;43391;47.448;18.904;2023-05-19T13:01:14;100264.19;;;24.94;52.00
57068;BME280;43391;47.448;18.904;2023-05-19T13:03:41;100266.53;;;24.98;51.96
57068;BME280;43391;47.448;18.904;2023-05-19T13:06:07;100264.44;;;25.10;53.43